Time;durP1;ratioP1;P1;durP2;ratioP2;P2;SDS_P1;SDS_P2;PMS_P1;PMS_P2;Temp;Humidity;BMP_temperature;BMP_pressure;BME280_temperature;BME280_humidity;BME280_pressure;Samples;Min_cycle;Max_cycle;Signal;HPM_P1;HPM_P2
2021/10/18 00:00:52;;;;;;;9.55;6.30;;;11.90;64.60;;;;;;5035025;28;20029;-69
2021/10/18 00:03:21;;;;;;;8.45;6.28;;;11.90;64.50;;;;;;5034731;28;20064;-69
2021/10/18 00:05:46;;;;;;;9.40;6.80;;;11.90;64.50;;;;;;5034661;28;20390;-69
2021/10/18 00:08:12;;;;;;;10.38;6.75;;;11.90;65.40;;;;;;5034670;28;20034;-69
2021/10/18 00:10:39;;;;;;;11.35;7.00;;;11.90;65.50;;;;;;5034893;28;20033;-69
2021/10/18 00:13:04;;;;;;;8.85;6.60;;;11.80;64.50;;;;;;5034896;28;20053;-70
2021/10/18 00:15:30;;;;;;;12.68;6.38;;;11.80;64.40;;;;;;5034915;28;20041;-69
2021/10/18 00:17:56;;;;;;;11.40;7.57;;;11.80;64.80;;;;;;5034604;28;20055;-69
2021/10/18 00:20:22;;;;;;;11.77;7.43;;;11.70;64.40;;;;;;5034666;28;20030;-69
2021/10/18 00:22:49;;;;;;;10.25;7.45;;;11.70;64.40;;;;;;5034636;28;20032;-70
2021/10/18 00:25:15;;;;;;;9.80;6.78;;;11.70;64.50;;;;;;5034957;28;20053;-68
2021/10/18 00:27:41;;;;;;;10.43;6.80;;;11.60;64.50;;;;;;5034468;28;20079;-69
2021/10/18 00:30:07;;;;;;;11.98;6.93;;;11.60;64.60;;;;;;5034511;28;20112;-69
2021/10/18 00:32:33;;;;;;;8.50;7.10;;;11.70;81.20;;;;;;5034560;28;20128;-69
2021/10/18 00:34:59;;;;;;;11.90;7.38;;;11.70;78.60;;;;;;5034515;28;20164;-69
2021/10/18 00:37:25;;;;;;;9.63;6.93;;;11.60;78.60;;;;;;5034239;28;20116;-69
2021/10/18 00:39:51;;;;;;;9.85;6.57;;;11.60;78.40;;;;;;5034681;28;20032;-70
2021/10/18 00:42:17;;;;;;;7.95;6.38;;;11.60;79.30;;;;;;5034450;28;20126;-69
2021/10/18 00:44:43;;;;;;;11.07;6.55;;;11.50;81.30;;;;;;5034639;28;20099;-68
2021/10/18 00:47:15;;;;;;;10.10;5.90;;;11.50;81.10;;;;;;5034261;28;20079;-69
2021/10/18 00:49:41;;;;;;;12.38;6.20;;;11.50;67.30;;;;;;5034213;28;20022;-69
2021/10/18 00:52:06;;;;;;;7.63;5.80;;;11.30;64.90;;;;;;5034316;28;20055;-69
2021/10/18 00:54:32;;;;;;;9.65;6.10;;;11.30;64.90;;;;;;5034191;28;20030;-69
2021/10/18 00:56:58;;;;;;;9.30;6.18;;;11.20;65.10;;;;;;5034193;28;20060;-69
2021/10/18 00:59:23;;;;;;;12.05;5.88;;;11.20;65.20;;;;;;5031157;28;20025;-69
2021/10/18 01:01:51;;;;;;;9.00;6.00;;;11.20;65.40;;;;;;5031083;28;20101;-69
2021/10/18 01:04:18;;;;;;;12.38;5.97;;;11.20;65.40;;;;;;5031742;28;20032;-69
2021/10/18 01:06:44;;;;;;;9.43;5.72;;;11.30;66.60;;;;;;5033490;28;20504;-69
2021/10/18 01:09:10;;;;;;;16.42;6.22;;;11.30;71.60;;;;;;5033952;28;20017;-69
2021/10/18 01:11:36;;;;;;;9.07;5.78;;;11.20;71.10;;;;;;5033884;28;20037;-69
2021/10/18 01:14:01;;;;;;;7.50;5.03;;;11.20;71.80;;;;;;5033426;28;20033;-70
2021/10/18 01:16:27;;;;;;;12.93;5.93;;;11.30;71.30;;;;;;5033436;28;20033;-69
2021/10/18 01:18:53;;;;;;;9.20;5.05;;;11.30;70.60;;;;;;5033214;28;20021;-69
2021/10/18 01:21:18;;;;;;;9.73;5.63;;;11.30;71.20;;;;;;5033140;28;20064;-69
2021/10/18 01:23:44;;;;;;;7.95;5.25;;;11.30;71.10;;;;;;5033462;28;20025;-69
2021/10/18 01:26:10;;;;;;;8.38;5.10;;;11.20;71.40;;;;;;5033488;28;20168;-69
2021/10/18 01:28:35;;;;;;;6.72;5.05;;;11.20;74.10;;;;;;5033063;28;20028;-71
2021/10/18 01:31:01;;;;;;;8.15;5.00;;;11.20;71.90;;;;;;5032798;28;20103;-69
2021/10/18 01:33:27;;;;;;;7.40;5.00;;;11.20;74.50;;;;;;5033548;28;20108;-69
2021/10/18 01:35:53;;;;;;;8.77;5.60;;;11.30;77.00;;;;;;5033203;28;20451;-70
2021/10/18 01:38:19;;;;;;;9.48;5.30;;;11.20;87.90;;;;;;5033253;28;20033;-69
2021/10/18 01:40:44;;;;;;;7.25;4.78;;;11.20;86.70;;;;;;5033119;28;20450;-69
2021/10/18 01:43:10;;;;;;;8.90;4.90;;;11.20;83.30;;;;;;5033140;28;20071;-69
2021/10/18 01:45:36;;;;;;;8.30;5.30;;;11.20;82.90;;;;;;5032227;28;20092;-70
2021/10/18 01:48:02;;;;;;;8.65;5.40;;;11.20;78.30;;;;;;5033343;28;20056;-69
2021/10/18 01:50:29;;;;;;;10.90;5.00;;;11.20;81.60;;;;;;5032184;28;20390;-69
2021/10/18 01:52:55;;;;;;;10.52;5.32;;;11.20;80.60;;;;;;5033260;28;20025;-69
2021/10/18 01:55:22;;;;;;;8.27;4.80;;;11.20;72.40;;;;;;5032898;28;20092;-69
2021/10/18 01:57:49;;;;;;;8.35;4.68;;;11.00;66.10;;;;;;5033127;28;20428;-69
2021/10/18 02:00:15;;;;;;;6.60;4.83;;;11.00;66.10;;;;;;5032694;28;20140;-69
2021/10/18 02:02:43;;;;;;;5.32;3.78;;;10.90;66.00;;;;;;5032761;28;20025;-69
2021/10/18 02:05:08;;;;;;;5.00;3.80;;;10.90;66.20;;;;;;5033174;28;20109;-69
2021/10/18 02:07:34;;;;;;;7.13;4.45;;;10.90;66.30;;;;;;5033173;28;20277;-70
2021/10/18 02:10:00;;;;;;;9.67;4.63;;;10.90;66.40;;;;;;5032904;28;20033;-69
2021/10/18 02:12:26;;;;;;;6.90;4.70;;;10.90;66.30;;;;;;5033098;28;20104;-69
2021/10/18 02:14:52;;;;;;;8.40;5.13;;;10.80;66.30;;;;;;5033005;28;20079;-69
2021/10/18 02:17:18;;;;;;;10.03;5.20;;;10.80;66.20;;;;;;5033271;28;20042;-69
2021/10/18 02:19:44;;;;;;;10.50;4.93;;;10.80;66.20;;;;;;5032841;28;20022;-69
2021/10/18 02:22:09;;;;;;;9.55;5.13;;;10.80;66.20;;;;;;5033088;28;20033;-69
2021/10/18 02:24:35;;;;;;;14.30;5.60;;;10.70;66.10;;;;;;5032547;28;20025;-69
2021/10/18 02:27:01;;;;;;;15.15;5.35;;;10.70;66.30;;;;;;5032945;28;20375;-69
2021/10/18 02:29:26;;;;;;;9.87;5.17;;;10.70;66.40;;;;;;5035991;28;20026;-69
2021/10/18 02:31:52;;;;;;;9.35;5.72;;;10.70;66.50;;;;;;5036644;28;20510;-69
2021/10/18 02:34:18;;;;;;;11.00;4.88;;;10.70;66.60;;;;;;5036798;28;20059;-69
2021/10/18 02:36:44;;;;;;;9.95;5.22;;;10.70;66.60;;;;;;5036627;28;20041;-69
2021/10/18 02:39:09;;;;;;;9.10;4.97;;;10.70;66.50;;;;;;5036393;28;20021;-69
2021/10/18 02:41:35;;;;;;;12.82;5.38;;;10.70;66.60;;;;;;5036591;28;20025;-69
2021/10/18 02:44:01;;;;;;;11.93;5.60;;;10.60;66.80;;;;;;5036681;28;20084;-69
2021/10/18 02:46:26;;;;;;;9.52;5.65;;;10.60;66.80;;;;;;5036625;28;20029;-69
2021/10/18 02:48:52;;;;;;;10.55;5.15;;;10.60;66.70;;;;;;5036760;28;20413;-69
2021/10/18 02:51:18;;;;;;;12.47;5.77;;;10.50;66.90;;;;;;5036162;28;20030;-70
2021/10/18 02:53:43;;;;;;;15.10;6.18;;;10.50;66.80;;;;;;5036047;28;20041;-69
2021/10/18 02:56:09;;;;;;;13.30;5.60;;;10.50;66.90;;;;;;5036469;28;20037;-69
2021/10/18 02:58:35;;;;;;;14.80;5.93;;;10.50;67.20;;;;;;5036369;28;20022;-69
2021/10/18 03:01:00;;;;;;;9.70;5.18;;;10.50;67.30;;;;;;5034745;28;20192;-69
2021/10/18 03:03:26;;;;;;;11.40;5.47;;;10.50;67.50;;;;;;5036061;28;20436;-69
2021/10/18 03:05:52;;;;;;;11.52;5.63;;;10.50;67.30;;;;;;5036069;28;20498;-69
2021/10/18 03:08:17;;;;;;;12.50;5.88;;;10.50;67.10;;;;;;5035783;28;20075;-69
2021/10/18 03:10:43;;;;;;;8.60;5.27;;;10.50;67.00;;;;;;5035884;28;20032;-77
2021/10/18 03:13:10;;;;;;;10.37;5.67;;;10.40;66.90;;;;;;5035902;28;20557;-69
2021/10/18 03:15:36;;;;;;;6.80;4.90;;;10.40;67.10;;;;;;5035989;28;20129;-73
2021/10/18 03:18:01;;;;;;;12.33;5.10;;;10.40;67.10;;;;;;5036178;28;20104;-72
2021/10/18 03:20:27;;;;;;;9.70;4.70;;;10.30;67.20;;;;;;5035991;28;20026;-69
2021/10/18 03:22:53;;;;;;;10.80;4.13;;;10.30;67.20;;;;;;5035897;28;20021;-69
2021/10/18 03:25:19;;;;;;;6.97;4.50;;;10.30;67.30;;;;;;5035785;28;20033;-69
2021/10/18 03:27:45;;;;;;;13.83;5.03;;;10.30;67.40;;;;;;5035747;28;20021;-69
2021/10/18 03:30:11;;;;;;;14.00;4.63;;;10.20;67.50;;;;;;5035624;28;20537;-69
2021/10/18 03:32:37;;;;;;;14.17;5.20;;;10.20;67.50;;;;;;5035611;28;20057;-71
2021/10/18 03:35:04;;;;;;;11.40;5.17;;;10.20;67.60;;;;;;5034458;28;20029;-70
2021/10/18 03:37:30;;;;;;;11.70;4.33;;;10.20;67.60;;;;;;5035446;28;20029;-69
2021/10/18 03:39:56;;;;;;;10.30;4.40;;;10.20;67.60;;;;;;5034920;28;20352;-74
2021/10/18 03:42:22;;;;;;;8.77;4.47;;;10.20;67.60;;;;;;5035498;28;20486;-69
2021/10/18 03:44:47;;;;;;;8.40;4.37;;;10.20;67.50;;;;;;5035146;28;20143;-69
2021/10/18 03:47:13;;;;;;;11.27;4.53;;;10.20;67.40;;;;;;5035351;28;20049;-69
2021/10/18 03:49:39;;;;;;;10.07;5.20;;;10.20;67.30;;;;;;5035263;28;20112;-69
2021/10/18 03:52:05;;;;;;;10.47;4.63;;;10.10;67.30;;;;;;5035295;28;20029;-69
2021/10/18 03:54:31;;;;;;;9.63;5.10;;;10.10;67.60;;;;;;5035254;28;20026;-69
2021/10/18 03:56:57;;;;;;;7.60;4.63;;;10.10;67.60;;;;;;5034832;28;20449;-69
2021/10/18 03:59:22;;;;;;;12.87;4.80;;;10.10;67.70;;;;;;5034984;28;20022;-69
2021/10/18 04:01:48;;;;;;;8.80;4.33;;;10.10;67.90;;;;;;5035043;28;20041;-69
2021/10/18 04:04:14;;;;;;;9.87;4.33;;;10.10;68.10;;;;;;5034939;28;20037;-69
2021/10/18 04:06:40;;;;;;;10.50;4.50;;;10.10;68.20;;;;;;5035192;28;20136;-69
2021/10/18 04:09:06;;;;;;;9.47;4.90;;;10.10;68.20;;;;;;5035026;28;20489;-69
2021/10/18 04:11:38;;;;;;;10.40;5.10;;;10.00;68.20;;;;;;5034766;28;20414;-69
2021/10/18 04:14:08;;;;;;;15.68;4.82;;;10.00;68.40;;;;;;5035006;28;20416;-69
2021/10/18 04:16:34;;;;;;;7.53;3.83;;;10.00;68.70;;;;;;5035084;28;20029;-69
2021/10/18 04:19:00;;;;;;;9.10;3.97;;;10.00;68.80;;;;;;5034668;28;20018;-69
2021/10/18 04:21:26;;;;;;;9.90;4.30;;;10.00;68.90;;;;;;5034693;28;20105;-69
2021/10/18 04:23:52;;;;;;;13.60;4.60;;;10.00;68.90;;;;;;5034584;28;20101;-69
2021/10/18 04:26:18;;;;;;;12.33;4.30;;;10.00;69.10;;;;;;5034761;28;20029;-69
2021/10/18 04:28:43;;;;;;;7.57;4.20;;;10.00;69.20;;;;;;5034404;28;20025;-71
2021/10/18 04:31:09;;;;;;;6.47;3.97;;;10.00;69.20;;;;;;5034097;28;20494;-69
2021/10/18 04:33:35;;;;;;;7.83;4.30;;;10.00;69.20;;;;;;5034373;28;20026;-69
2021/10/18 04:36:01;;;;;;;8.00;4.73;;;10.10;69.10;;;;;;5034420;28;20137;-69
2021/10/18 04:38:27;;;;;;;7.43;4.53;;;10.00;69.10;;;;;;5034174;28;20498;-69
2021/10/18 04:40:52;;;;;;;9.20;4.47;;;10.00;69.00;;;;;;5034494;28;20112;-69
2021/10/18 04:43:18;;;;;;;8.67;4.90;;;10.00;68.90;;;;;;5034497;28;20147;-69
2021/10/18 04:45:43;;;;;;;13.43;4.87;;;10.10;68.90;;;;;;5034541;28;20021;-69
2021/10/18 04:48:09;;;;;;;4.87;3.83;;;10.10;68.80;;;;;;5033914;28;20444;-69
2021/10/18 04:50:35;;;;;;;8.90;4.43;;;10.00;68.70;;;;;;5034087;28;20378;-69
2021/10/18 04:53:01;;;;;;;10.23;4.47;;;10.00;68.80;;;;;;5033321;28;20409;-69
2021/10/18 04:55:26;;;;;;;10.90;5.13;;;10.00;68.90;;;;;;5034008;28;20053;-69
2021/10/18 04:57:55;;;;;;;14.60;4.87;;;10.00;68.80;;;;;;5034354;28;20029;-69
2021/10/18 05:00:23;;;;;;;15.33;4.50;;;10.00;68.90;;;;;;5033666;28;20060;-69
2021/10/18 05:02:48;;;;;;;14.60;4.53;;;10.00;68.90;;;;;;5034269;28;20037;-69
2021/10/18 05:05:14;;;;;;;18.20;4.43;;;9.90;68.80;;;;;;5034117;28;20121;-69
2021/10/18 05:07:40;;;;;;;9.60;4.13;;;9.90;68.90;;;;;;5034002;28;20025;-70
2021/10/18 05:10:10;;;;;;;13.23;5.03;;;9.90;68.90;;;;;;5033662;28;20549;-69
2021/10/18 05:12:35;;;;;;;14.43;4.47;;;9.90;68.80;;;;;;5033758;28;20097;-71
2021/10/18 05:15:01;;;;;;;16.70;4.47;;;9.90;69.10;;;;;;5033805;28;20109;-69
2021/10/18 05:17:27;;;;;;;15.77;6.17;;;9.90;69.20;;;;;;5033633;28;20052;-69
2021/10/18 05:19:52;;;;;;;16.60;4.83;;;9.80;69.20;;;;;;5033574;28;20021;-69
2021/10/18 05:22:19;;;;;;;13.80;4.87;;;9.80;69.40;;;;;;5033427;28;20029;-69
2021/10/18 05:24:45;;;;;;;22.30;5.20;;;9.80;69.30;;;;;;5033502;28;20056;-70
2021/10/18 05:27:11;;;;;;;14.80;4.60;;;9.80;69.40;;;;;;5033447;28;20049;-70
2021/10/18 05:29:36;;;;;;;9.20;4.20;;;9.80;69.40;;;;;;5033855;28;20113;-71
2021/10/18 05:32:02;;;;;;;12.67;4.50;;;9.80;69.30;;;;;;5033379;28;20102;-70
2021/10/18 05:34:28;;;;;;;10.37;4.90;;;9.70;69.50;;;;;;5033543;28;20078;-73
2021/10/18 05:36:53;;;;;;;6.80;4.20;;;9.70;69.50;;;;;;5033642;28;20163;-70
2021/10/18 05:39:19;;;;;;;8.40;4.47;;;9.70;69.50;;;;;;5033138;28;20049;-70
2021/10/18 05:41:44;;;;;;;10.93;4.90;;;9.70;69.70;;;;;;5031800;28;20749;-69
2021/10/18 05:44:10;;;;;;;13.57;5.23;;;9.70;69.80;;;;;;5031202;28;20479;-69
2021/10/18 05:46:36;;;;;;;17.53;4.93;;;9.70;70.30;;;;;;5031820;28;20036;-69
2021/10/18 05:49:02;;;;;;;15.87;4.70;;;9.70;70.30;;;;;;5031726;28;20032;-69
2021/10/18 05:51:29;;;;;;;10.97;5.30;;;9.70;70.40;;;;;;5032629;28;20025;-69
2021/10/18 05:53:55;;;;;;;13.27;5.17;;;9.70;70.50;;;;;;5032770;28;20482;-69
2021/10/18 05:56:20;;;;;;;14.83;5.63;;;9.70;70.40;;;;;;5032842;28;20087;-69
2021/10/18 05:58:46;;;;;;;14.83;5.13;;;9.70;70.40;;;;;;5031796;28;20071;-70
2021/10/18 06:01:12;;;;;;;15.73;5.10;;;9.80;70.40;;;;;;5031368;28;20025;-70
2021/10/18 06:03:37;;;;;;;10.50;5.00;;;9.80;70.40;;;;;;5032216;28;20465;-70
2021/10/18 06:06:07;;;;;;;12.87;4.50;;;9.80;70.50;;;;;;5032898;28;20029;-70
2021/10/18 06:08:33;;;;;;;17.07;4.67;;;9.80;70.50;;;;;;5032774;28;20068;-71
2021/10/18 06:10:59;;;;;;;8.20;4.30;;;9.80;70.60;;;;;;5032768;28;20029;-70
2021/10/18 06:13:24;;;;;;;9.20;4.93;;;9.90;70.40;;;;;;5031738;28;20025;-73
2021/10/18 06:15:51;;;;;;;10.07;4.63;;;9.90;70.40;;;;;;5029779;28;20490;-73
2021/10/18 06:18:18;;;;;;;13.33;4.80;;;9.90;70.30;;;;;;5030288;28;20423;-72
2021/10/18 06:20:48;;;;;;;7.20;4.83;;;9.90;70.40;;;;;;5031526;28;20061;-68
2021/10/18 06:23:14;;;;;;;10.27;5.37;;;10.00;70.40;;;;;;5032437;28;20025;-68
2021/10/18 06:25:42;;;;;;;9.00;5.37;;;10.00;70.20;;;;;;5032419;28;20504;-69
2021/10/18 06:28:08;;;;;;;14.97;5.10;;;10.00;70.10;;;;;;5030385;28;20029;-69
2021/10/18 06:30:34;;;;;;;14.10;5.93;;;10.00;70.10;;;;;;5029475;28;20113;-68
2021/10/18 06:33:03;;;;;;;22.37;5.53;;;10.00;70.10;;;;;;5030779;28;20521;-69
2021/10/18 06:35:29;;;;;;;24.63;5.70;;;10.00;70.10;;;;;;5032483;28;20418;-69
2021/10/18 06:37:54;;;;;;;13.17;5.63;;;10.10;70.20;;;;;;5032400;28;20113;-69
2021/10/18 06:40:20;;;;;;;23.07;5.40;;;10.10;70.10;;;;;;5032101;28;20032;-69
2021/10/18 06:42:46;;;;;;;18.77;6.60;;;10.10;70.50;;;;;;5031837;28;20548;-69
2021/10/18 06:45:12;;;;;;;11.70;5.33;;;10.20;70.80;;;;;;5030739;28;20029;-68
2021/10/18 06:47:38;;;;;;;18.07;4.80;;;10.30;71.30;;;;;;5030794;28;20500;-68
2021/10/18 06:50:05;;;;;;;13.77;5.23;;;10.30;71.40;;;;;;5031987;28;20036;-69
2021/10/18 06:52:42;;;;;;;8.50;4.57;;;10.40;71.40;;;;;;5031306;28;20037;-69
2021/10/18 06:55:11;;;;;;;11.87;4.97;;;10.50;71.70;;;;;;5031617;28;20354;-69
2021/10/18 06:57:37;;;;;;;8.70;4.57;;;10.60;71.60;;;;;;5031919;28;20505;-69
2021/10/18 07:00:05;;;;;;;10.10;4.88;;;10.70;71.20;;;;;;5032032;28;20026;-69
2021/10/18 07:02:31;;;;;;;10.23;5.00;;;10.80;71.10;;;;;;5029837;28;20375;-69
2021/10/18 07:04:56;;;;;;;9.63;5.43;;;10.80;71.10;;;;;;5029859;28;20032;-70
2021/10/18 07:07:26;;;;;;;7.25;4.95;;;10.80;70.80;;;;;;5031856;28;20018;-73
2021/10/18 07:09:52;;;;;;;20.00;5.07;;;10.90;70.70;;;;;;5031895;28;20049;-73
2021/10/18 07:12:17;;;;;;;9.43;4.85;;;10.90;70.70;;;;;;5031776;28;20084;-71
2021/10/18 07:14:43;;;;;;;13.95;5.78;;;11.00;70.90;;;;;;5032283;28;20025;-72
2021/10/18 07:17:09;;;;;;;20.48;6.88;;;11.00;71.00;;;;;;5035195;28;20565;-72
2021/10/18 07:19:34;;;;;;;21.38;6.03;;;11.00;70.90;;;;;;5035505;28;20018;-72
2021/10/18 07:22:00;;;;;;;13.80;5.13;;;11.10;70.60;;;;;;5035531;28;20025;-72
2021/10/18 07:24:25;;;;;;;20.45;5.30;;;11.10;70.50;;;;;;5035375;28;20028;-73
2021/10/18 07:26:51;;;;;;;18.40;5.47;;;11.20;70.10;;;;;;5033482;28;20022;-72
2021/10/18 07:29:18;;;;;;;24.27;5.90;;;11.20;70.10;;;;;;5031160;28;20035;-70
2021/10/18 07:31:44;;;;;;;13.23;4.95;;;11.20;70.40;;;;;;5033631;28;20445;-72
2021/10/18 07:34:14;;;;;;;17.65;5.03;;;11.20;70.60;;;;;;5034831;28;20025;-72
2021/10/18 07:36:50;;;;;;;18.23;5.80;;;11.20;71.00;;;;;;5007745;28;20564;-73
2021/10/18 07:39:21;;;;;;;7.85;5.53;;;11.30;71.20;;;;;;5034764;28;20037;-74
2021/10/18 07:41:48;;;;;;;15.52;5.78;;;11.50;74.10;;;;;;5034735;28;20025;-71
2021/10/18 07:44:14;;;;;;;9.32;6.03;;;11.40;71.30;;;;;;5034729;28;20336;-72
2021/10/18 07:46:40;;;;;;;9.57;6.18;;;11.50;86.20;;;;;;5034342;28;20053;-71
2021/10/18 07:49:06;;;;;;;13.70;5.90;;;11.50;71.20;;;;;;5034632;28;20053;-72
2021/10/18 07:51:32;;;;;;;17.67;6.95;;;11.60;71.20;;;;;;5034816;28;20068;-71
2021/10/18 07:53:58;;;;;;;10.38;6.53;;;11.60;71.30;;;;;;5035111;28;20026;-72
2021/10/18 07:56:23;;;;;;;15.40;6.22;;;11.80;91.20;;;;;;5034447;28;20087;-72
2021/10/18 07:58:49;;;;;;;15.15;6.35;;;11.80;73.90;;;;;;5033445;28;20048;-72
2021/10/18 08:01:15;;;;;;;18.30;6.28;;;11.70;71.30;;;;;;5034823;28;20022;-72
2021/10/18 08:03:40;;;;;;;10.30;6.60;;;11.80;71.50;;;;;;5034864;28;20033;-72
2021/10/18 08:06:06;;;;;;;16.05;6.93;;;11.80;71.60;;;;;;5033891;28;20033;-72
2021/10/18 08:08:34;;;;;;;13.13;7.45;;;;;;;;;;5034040;28;20018;-72
2021/10/18 08:11:00;;;;;;;18.73;8.38;;;12.10;95.30;;;;;;5033970;28;20036;-72
2021/10/18 08:13:26;;;;;;;15.23;7.28;;;12.10;71.00;;;;;;5034312;28;20026;-72
2021/10/18 08:15:52;;;;;;;12.85;6.47;;;12.10;71.10;;;;;;5034896;28;20030;-71
2021/10/18 08:18:18;;;;;;;9.88;6.25;;;12.20;71.20;;;;;;5033469;28;20108;-72
2021/10/18 08:20:43;;;;;;;13.73;6.70;;;12.20;70.60;;;;;;5034916;28;20026;-72
2021/10/18 08:23:09;;;;;;;11.73;6.75;;;12.30;70.40;;;;;;5035086;28;20036;-72
2021/10/18 08:25:35;;;;;;;11.05;6.38;;;12.30;70.40;;;;;;5034813;28;20356;-72
2021/10/18 08:28:01;;;;;;;11.48;5.50;;;12.60;74.10;;;;;;5034556;28;20036;-72
2021/10/18 08:30:27;;;;;;;14.88;6.78;;;12.60;78.70;;;;;;5034598;28;20398;-72
2021/10/18 08:32:52;;;;;;;14.18;7.15;;;12.60;71.40;;;;;;5034365;28;20041;-72
2021/10/18 08:35:19;;;;;;;22.15;7.32;;;12.80;79.50;;;;;;5034747;28;20026;-72
2021/10/18 08:40:31;;;;;;;15.55;6.35;;;12.80;71.70;;;;;;5034827;28;20060;-72
2021/10/18 08:43:01;;;;;;;13.98;6.30;;;12.90;71.10;;;;;;5034379;28;20025;-72
2021/10/18 08:45:27;;;;;;;17.77;6.40;;;13.00;71.20;;;;;;5034562;28;20025;-72
2021/10/18 08:47:54;;;;;;;12.10;6.00;;;13.00;71.60;;;;;;5034014;28;20108;-74
2021/10/18 08:50:24;;;;;;;9.98;6.72;;;13.20;73.70;;;;;;5034265;28;20382;-72
2021/10/18 08:52:50;;;;;;;10.98;6.85;;;13.10;70.80;;;;;;5034206;28;20474;-72
2021/10/18 08:55:16;;;;;;;8.65;5.80;;;13.20;70.20;;;;;;5034165;28;20022;-72
2021/10/18 08:57:42;;;;;;;12.52;6.65;;;13.20;70.00;;;;;;5034125;28;20034;-72
2021/10/18 09:00:48;;;;;;;17.02;7.30;;;13.30;70.00;;;;;;5032605;28;20017;-72
2021/10/18 09:03:28;;;;;;;12.18;6.25;;;13.40;70.00;;;;;;5032482;28;20029;-72
2021/10/18 09:06:24;;;;;;;11.45;5.50;;;13.40;69.60;;;;;;5031292;28;20359;-72
2021/10/18 09:08:55;;;;;;;8.43;5.20;;;13.50;69.80;;;;;;5031544;28;20044;-72
2021/10/18 09:11:28;;;;;;;8.80;4.97;;;13.50;69.60;;;;;;5033818;28;20463;-71
2021/10/18 09:13:54;;;;;;;12.88;6.20;;;13.50;69.50;;;;;;5032798;28;20028;-72
2021/10/18 09:16:29;;;;;;;9.32;4.82;;;13.60;69.40;;;;;;5033678;28;20026;-72
2021/10/18 09:19:00;;;;;;;12.23;4.47;;;13.60;69.20;;;;;;5033816;28;20025;-72
2021/10/18 09:21:31;;;;;;;5.93;4.75;;;13.70;68.90;;;;;;5033571;28;20041;-72
2021/10/18 09:23:57;;;;;;;11.70;4.72;;;13.70;68.60;;;;;;5033437;28;20033;-71
2021/10/18 09:26:25;;;;;;;10.88;4.50;;;13.80;68.70;;;;;;5033460;28;20315;-71
2021/10/18 09:28:55;;;;;;;8.65;4.82;;;13.90;68.90;;;;;;5033421;28;20066;-72
2021/10/18 09:31:21;;;;;;;6.85;4.72;;;13.90;68.60;;;;;;5033250;28;20045;-72
2021/10/18 09:33:58;;;;;;;6.22;4.03;;;14.00;68.30;;;;;;5033100;28;20090;-72
2021/10/18 09:36:31;;;;;;;11.27;4.70;;;14.00;68.30;;;;;;5032982;28;20394;-72
2021/10/18 09:39:29;;;;;;;8.82;4.13;;;14.10;68.20;;;;;;5030308;28;20453;-72
2021/10/18 09:41:58;;;;;;;10.30;3.20;;;14.20;68.00;;;;;;5028956;28;20041;-75
2021/10/18 09:44:56;;;;;;;3.90;2.80;;;14.20;67.10;;;;;;5031785;28;20025;-74
2021/10/18 10:52:40;;;;;;;5.10;2.10;;;16.00;59.50;;;;;;5035749;28;20064;-69
2021/10/18 10:55:26;;;;;;;6.68;2.20;;;16.10;57.50;;;;;;5036046;28;20387;-69
2021/10/18 10:57:54;;;;;;;4.15;2.30;;;16.20;57.80;;;;;;5035592;28;20037;-69
2021/10/18 11:00:30;;;;;;;3.72;2.20;;;16.30;57.90;;;;;;5035442;28;20014;-69
2021/10/18 11:03:20;;;;;;;4.28;2.20;;;16.50;57.30;;;;;;5033212;28;20033;-71
2021/10/18 11:06:15;;;;;;;5.75;2.25;;;16.50;56.60;;;;;;5033156;28;20029;-70
2021/10/18 11:08:46;;;;;;;3.63;2.00;;;16.60;55.50;;;;;;5032801;28;20025;-72
2021/10/18 11:11:23;;;;;;;2.30;1.60;;;16.70;56.30;;;;;;5032249;28;20405;-71
2021/10/18 11:13:56;;;;;;;4.78;2.20;;;16.80;56.60;;;;;;5033562;28;20492;-72
2021/10/18 11:16:24;;;;;;;4.93;2.00;;;17.00;57.20;;;;;;5035667;28;20041;-72
2021/10/18 11:18:56;;;;;;;4.63;2.10;;;17.10;56.30;;;;;;5034971;28;20100;-71
2021/10/18 11:21:23;;;;;;;3.15;2.13;;;17.20;55.20;;;;;;5035126;28;20040;-72
2021/10/18 11:24:08;;;;;;;4.97;1.80;;;17.30;54.80;;;;;;5035077;28;20061;-71
2021/10/18 11:26:37;;;;;;;4.47;1.90;;;17.40;55.00;;;;;;5034743;28;20037;-73
2021/10/18 11:29:08;;;;;;;4.35;1.80;;;17.50;54.50;;;;;;5035576;28;20033;-71
2021/10/18 11:31:37;;;;;;;3.33;1.90;;;17.60;54.40;;;;;;5035247;28;20056;-72
2021/10/18 11:34:08;;;;;;;4.30;1.90;;;17.70;54.70;;;;;;5035938;28;20386;-71
2021/10/18 11:36:36;;;;;;;3.17;1.98;;;17.70;54.50;;;;;;5035183;28;20034;-72
2021/10/18 11:39:13;;;;;;;5.70;2.00;;;17.90;54.10;;;;;;5035199;28;20397;-72
2021/10/18 11:41:58;;;;;;;5.45;2.00;;;17.90;53.70;;;;;;5035747;28;20029;-72
2021/10/18 11:44:42;;;;;;;6.80;2.00;;;18.00;53.50;;;;;;5035402;28;20025;-71
2021/10/18 11:47:24;;;;;;;2.80;1.67;;;18.10;54.10;;;;;;5035411;28;20092;-74
2021/10/18 11:50:17;;;;;;;3.08;1.95;;;18.20;53.90;;;;;;5035407;28;20048;-75
2021/10/18 11:52:58;;;;;;;4.43;2.10;;;18.20;53.20;;;;;;5035027;28;20469;-75
2021/10/18 11:55:33;;;;;;;4.70;1.88;;;18.30;53.20;;;;;;5034800;28;20021;-74
2021/10/18 11:58:04;;;;;;;7.68;2.25;;;18.40;54.20;;;;;;5033836;28;20034;-73
2021/10/18 12:00:32;;;;;;;3.03;1.83;;;18.50;53.80;;;;;;5031824;28;20033;-75
2021/10/18 12:03:01;;;;;;;2.25;1.85;;;18.60;53.20;;;;;;5031857;28;20022;-73
2021/10/18 12:05:36;;;;;;;3.42;2.00;;;18.70;53.00;;;;;;5033807;28;20426;-74
2021/10/18 12:08:04;;;;;;;3.08;1.77;;;18.90;58.90;;;;;;5034777;28;20100;-73
2021/10/18 12:10:31;;;;;;;3.22;2.00;;;18.90;57.10;;;;;;5034730;28;20022;-73
2021/10/18 12:13:07;;;;;;;2.38;1.85;;;18.90;51.90;;;;;;5033323;28;20017;-74
2021/10/18 12:15:37;;;;;;;3.63;1.80;;;19.00;51.60;;;;;;5034468;28;20018;-75
2021/10/18 12:18:04;;;;;;;2.88;1.77;;;19.10;62.10;;;;;;5034181;28;20505;-75
2021/10/18 12:20:30;;;;;;;3.97;1.80;;;19.20;64.80;;;;;;5034355;28;20056;-76
2021/10/18 12:23:05;;;;;;;3.22;1.80;;;19.20;54.40;;;;;;5031934;28;20025;-71
2021/10/18 12:25:33;;;;;;;3.22;1.98;;;19.20;50.50;;;;;;5031799;28;20382;-71
2021/10/18 12:28:19;;;;;;;4.60;2.10;;;19.20;51.00;;;;;;5034015;28;20025;-72
2021/10/18 12:30:45;;;;;;;5.63;2.00;;;19.30;63.20;;;;;;5033725;28;20046;-71
2021/10/18 12:33:13;;;;;;;3.22;1.60;;;19.40;63.20;;;;;;5034389;28;20132;-71
2021/10/18 12:35:39;;;;;;;5.70;1.95;;;19.40;65.20;;;;;;5034334;28;20056;-71
2021/10/18 12:38:26;;;;;;;2.85;1.95;;;19.40;65.70;;;;;;5034350;28;20466;-71
2021/10/18 12:41:11;;;;;;;3.67;1.77;;;19.50;51.70;;;;;;5032506;28;20518;-71
2021/10/18 12:43:37;;;;;;;4.50;2.08;;;19.40;50.10;;;;;;5031590;28;20021;-72
2021/10/18 12:46:24;;;;;;;5.40;1.80;;;19.40;49.90;;;;;;5033256;28;20032;-70
2021/10/18 12:49:00;;;;;;;3.17;1.70;;;19.60;53.10;;;;;;5034019;28;20032;-71
2021/10/18 12:51:36;;;;;;;2.60;1.63;;;19.60;58.10;;;;;;5034205;28;20087;-70
2021/10/18 12:54:36;;;;;;;2.83;1.77;;;19.70;52.10;;;;;;5033703;28;20390;-71
2021/10/18 12:57:07;;;;;;;3.97;1.98;;;19.60;50.40;;;;;;5031715;28;20037;-71
2021/10/18 12:59:36;;;;;;;2.03;1.47;;;19.60;50.70;;;;;;5033575;28;20470;-71
2021/10/18 13:02:14;;;;;;;3.80;1.55;;;19.60;48.90;;;;;;5034029;28;20447;-71
2021/10/18 13:04:40;;;;;;;5.20;1.70;;;19.70;49.10;;;;;;5032840;28;20057;-70
2021/10/18 13:07:07;;;;;;;2.67;1.77;;;19.70;48.20;;;;;;5033633;28;20445;-71
2021/10/18 13:09:32;;;;;;;2.97;1.50;;;19.60;46.70;;;;;;5033999;28;20052;-71
2021/10/18 13:11:58;;;;;;;1.88;1.40;;;19.60;46.90;;;;;;5034350;28;20025;-71
2021/10/18 13:14:24;;;;;;;3.47;1.52;;;19.60;47.50;;;;;;5048669;28;20068;-71
2021/10/18 13:16:49;;;;;;;2.95;1.70;;;19.60;46.80;;;;;;5033975;28;20057;-71
2021/10/18 13:19:15;;;;;;;4.47;1.80;;;19.60;47.20;;;;;;5033987;28;20433;-71
2021/10/18 13:21:41;;;;;;;6.90;1.80;;;19.50;48.20;;;;;;5033738;28;20437;-71
2021/10/18 13:24:06;;;;;;;3.97;1.73;;;19.60;47.90;;;;;;5033872;28;20033;-72
2021/10/18 13:26:32;;;;;;;10.27;1.83;;;19.60;47.40;;;;;;5033851;28;20034;-71
2021/10/18 13:28:58;;;;;;;3.03;1.85;;;19.60;47.70;;;;;;5033841;28;20034;-71
2021/10/18 13:31:23;;;;;;;5.72;1.50;;;19.60;47.10;;;;;;5033233;28;20041;-71
2021/10/18 13:33:49;;;;;;;3.65;1.45;;;19.60;47.10;;;;;;5033654;28;20034;-71
2021/10/18 13:36:15;;;;;;;2.50;1.75;;;19.60;47.70;;;;;;5033602;28;20037;-72
2021/10/18 13:38:40;;;;;;;2.75;1.60;;;19.50;47.70;;;;;;5033955;28;20125;-72
2021/10/18 13:41:08;;;;;;;5.30;1.65;;;19.50;46.90;;;;;;5033467;28;20127;-71
2021/10/18 13:43:35;;;;;;;2.53;1.52;;;19.50;47.20;;;;;;5033686;28;20025;-71
2021/10/18 13:46:01;;;;;;;5.50;1.63;;;19.40;47.40;;;;;;5032265;28;20028;-70
2021/10/18 13:48:26;;;;;;;4.45;1.70;;;19.40;48.20;;;;;;5033593;28;20045;-71
2021/10/18 13:50:52;;;;;;;1.80;1.48;;;19.40;48.40;;;;;;5033233;28;20033;-71
2021/10/18 13:53:20;;;;;;;5.05;1.85;;;19.40;48.20;;;;;;5033131;28;20084;-71
2021/10/18 13:55:47;;;;;;;2.63;1.70;;;19.40;47.70;;;;;;5031954;28;20054;-70